Time;durP1;ratioP1;P1;durP2;ratioP2;P2;SDS_P1;SDS_P2;PMS_P1;PMS_P2;Temp;Humidity;BMP_temperature;BMP_pressure;BME280_temperature;BME280_humidity;BME280_pressure;Samples;Min_cycle;Max_cycle;Signal;HPM_P1;HPM_P2
2023/05/18 00:00:34;;;;;;;10.93;2.38;;;;;;;;;;6243591;23;20413;-96
2023/05/18 00:03:02;;;;;;;4.22;1.92;;;;;;;;;;6219405;23;20004;-96
2023/05/18 00:05:32;;;;;;;8.23;2.00;;;;;;;;;;6219148;23;20008;-95
2023/05/18 00:07:58;;;;;;;12.18;2.28;;;;;;;;;;6215341;23;20016;-94
2023/05/18 00:10:28;;;;;;;10.63;2.50;;;;;;;;;;6243216;23;19992;-95
2023/05/18 00:12:54;;;;;;;8.52;2.25;;;;;;;;;;6215761;23;20063;-95
2023/05/18 00:15:21;;;;;;;11.93;2.53;;;;;;;;;;6243349;23;20335;-95
2023/05/18 00:17:52;;;;;;;6.18;1.95;;;;;;;;;;6245222;22;20004;-96
2023/05/18 00:20:20;;;;;;;8.57;2.67;;;;;;;;;;6217053;23;20586;-94
2023/05/18 00:22:49;;;;;;;8.63;2.45;;;;;;;;;;6216840;23;20008;-95
2023/05/18 00:25:15;;;;;;;6.18;1.67;;;;;;;;;;6243019;23;20091;-95
2023/05/18 00:27:42;;;;;;;8.05;1.88;;;;;;;;;;6217177;23;20007;-94
2023/05/18 00:30:08;;;;;;;8.48;2.55;;;;;;;;;;6240678;23;20023;-95
2023/05/18 00:32:33;;;;;;;7.63;2.20;;;;;;;;;;6221515;23;20389;-96
2023/05/18 00:35:02;;;;;;;10.02;2.55;;;;;;;;;;6215746;23;20024;-96
2023/05/18 00:37:29;;;;;;;7.63;2.42;;;;;;;;;;6245374;22;20012;-96
2023/05/18 00:39:55;;;;;;;10.40;2.65;;;;;;;;;;6219355;23;20004;-95
2023/05/18 00:42:20;;;;;;;7.00;2.58;;;;;;;;;;6220463;23;20023;-96
2023/05/18 00:44:45;;;;;;;9.45;2.30;;;;;;;;;;6216242;23;20107;-96
2023/05/18 00:47:11;;;;;;;8.05;2.03;;;;;;;;;;6239732;23;20043;-96
2023/05/18 00:49:39;;;;;;;7.60;2.40;;;;;;;;;;6214206;23;20001;-95
2023/05/18 00:52:04;;;;;;;9.13;2.75;;;;;;;;;;6238476;23;20103;-94
2023/05/18 00:54:33;;;;;;;13.90;2.50;;;;;;;;;;6244047;23;20055;-95
2023/05/18 00:57:00;;;;;;;4.85;2.25;;;;;;;;;;6217988;22;20162;-95
2023/05/18 00:59:29;;;;;;;6.80;1.90;;;;;;;;;;6215097;23;20000;-94
2023/05/18 01:01:57;;;;;;;11.25;2.38;;;;;;;;;;6218887;23;20004;-94
2023/05/18 01:04:24;;;;;;;5.93;2.05;;;;;;;;;;6216051;23;20232;-95
2023/05/18 01:06:55;;;;;;;8.38;2.35;;;;;;;;;;6213776;23;20023;-94
2023/05/18 01:09:20;;;;;;;10.45;2.75;;;;;;;;;;6240174;23;20009;-94
2023/05/18 01:11:49;;;;;;;8.95;2.55;;;;;;;;;;6218810;23;20012;-96
2023/05/18 01:14:23;;;;;;;8.27;2.78;;;;;;;;;;6218146;23;20435;-95
2023/05/18 01:17:00;;;;;;;8.80;2.35;;;;;;;;;;6217895;22;20319;-95
2023/05/18 01:19:45;;;;;;;16.20;2.53;;;;;;;;;;6216490;23;20011;-95
2023/05/18 01:22:30;;;;;;;7.15;2.30;;;;;;;;;;6219862;23;20083;-94
2023/05/18 01:25:14;;;;;;;10.57;2.60;;;;;;;;;;6219704;23;20031;-94
2023/05/18 01:27:48;;;;;;;8.07;2.42;;;;;;;;;;6219681;23;20062;-96
2023/05/18 01:30:21;;;;;;;9.60;2.38;;;;;;;;;;6214234;23;20317;-96
2023/05/18 01:32:46;;;;;;;8.23;1.98;;;;;;;;;;6217692;23;20435;-95
2023/05/18 01:35:14;;;;;;;7.47;2.35;;;;;;;;;;6212743;23;20004;-95
2023/05/18 01:37:39;;;;;;;4.88;1.85;;;;;;;;;;6218164;23;20163;-95
2023/05/18 01:40:06;;;;;;;6.60;2.20;;;;;;;;;;6219752;23;20007;-96
2023/05/18 01:42:33;;;;;;;6.63;2.35;;;;;;;;;;6219795;23;20383;-95
2023/05/18 01:45:02;;;;;;;7.18;2.35;;;;;;;;;;6219497;23;20004;-96
2023/05/18 01:47:38;;;;;;;7.05;2.45;;;;;;;;;;6219110;23;20020;-96
2023/05/18 01:50:13;;;;;;;8.73;2.72;;;;;;;;;;6214824;23;20005;-96
2023/05/18 01:52:39;;;;;;;10.27;2.95;;;;;;;;;;6239065;23;20071;-96
2023/05/18 01:55:08;;;;;;;6.68;1.90;;;;;;;;;;6241476;23;20363;-96
2023/05/18 01:57:35;;;;;;;3.85;1.73;;;;;;;;;;6237805;22;20003;-96
2023/05/18 02:00:01;;;;;;;7.50;2.20;;;;;;;;;;6240310;23;20001;-96
2023/05/18 02:02:27;;;;;;;3.60;1.98;;;;;;;;;;6244451;23;20190;-94
2023/05/18 02:04:52;;;;;;;10.43;2.50;;;;;;;;;;6212158;23;20004;-95
2023/05/18 02:07:17;;;;;;;9.90;2.10;;;;;;;;;;6240386;22;20384;-95
2023/05/18 02:09:45;;;;;;;5.90;2.17;;;;;;;;;;6212523;23;20007;-95
2023/05/18 02:12:11;;;;;;;5.30;2.22;;;;;;;;;;6241123;23;20059;-95
2023/05/18 02:14:41;;;;;;;8.77;1.83;;;;;;;;;;6219225;23;20007;-95
2023/05/18 02:17:12;;;;;;;7.93;1.88;;;;;;;;;;6214426;23;19997;-95
2023/05/18 02:19:40;;;;;;;13.10;2.38;;;;;;;;;;6218760;23;20023;-95
2023/05/18 02:22:05;;;;;;;9.50;2.70;;;;;;;;;;6215276;23;20012;-96
2023/05/18 02:24:34;;;;;;;7.95;2.33;;;;;;;;;;6240778;23;20005;-95
2023/05/18 02:27:04;;;;;;;8.88;2.25;;;;;;;;;;6239378;23;20020;-95
2023/05/18 02:32:53;;;;;;;7.95;2.55;;;;;;;;;;6154491;23;20007;-96
2023/05/18 02:35:19;;;;;;;7.80;2.30;;;;;;;;;;6184018;23;20088;-96
2023/05/18 02:37:48;;;;;;;8.98;2.55;;;;;;;;;;6211298;22;20008;-95
2023/05/18 02:40:14;;;;;;;10.90;2.22;;;;;;;;;;6215960;23;19997;-96
2023/05/18 02:42:42;;;;;;;14.20;2.35;;;;;;;;;;6220249;23;20018;-96
2023/05/18 02:45:10;;;;;;;5.22;2.28;;;;;;;;;;6214720;23;20027;-96
2023/05/18 02:47:35;;;;;;;8.07;2.40;;;;;;;;;;6212774;23;20003;-96
2023/05/18 02:50:01;;;;;;;6.47;2.45;;;;;;;;;;6238926;23;20000;-95
2023/05/18 02:52:32;;;;;;;8.52;2.45;;;;;;;;;;6243299;23;20014;-96
2023/05/18 02:54:58;;;;;;;8.35;2.53;;;;;;;;;;6214248;23;20013;-96
2023/05/18 02:57:23;;;;;;;6.03;2.25;;;;;;;;;;6241410;22;20027;-96
2023/05/18 02:59:48;;;;;;;7.10;2.22;;;;;;;;;;6212597;23;20074;-93
2023/05/18 03:02:17;;;;;;;9.73;2.88;;;;;;;;;;6239545;23;20000;-95
2023/05/18 03:04:42;;;;;;;8.70;2.55;;;;;;;;;;6211400;23;20035;-96
2023/05/18 03:07:09;;;;;;;9.40;3.05;;;;;;;;;;6239052;23;20013;-96
2023/05/18 03:09:34;;;;;;;9.68;2.90;;;;;;;;;;6217607;23;20042;-94
2023/05/18 03:12:00;;;;;;;12.57;2.97;;;;;;;;;;6214788;23;20004;-96
2023/05/18 03:14:25;;;;;;;14.52;2.85;;;;;;;;;;6215520;23;20027;-94
2023/05/18 03:16:53;;;;;;;10.10;2.85;;;;;;;;;;6210915;23;20009;-94
2023/05/18 03:19:19;;;;;;;8.50;2.63;;;;;;;;;;6239419;23;20139;-94
2023/05/18 03:21:44;;;;;;;10.35;2.97;;;;;;;;;;6216955;23;20434;-96
2023/05/18 03:24:13;;;;;;;7.20;2.25;;;;;;;;;;6215405;23;19996;-94
2023/05/18 03:26:43;;;;;;;8.73;2.55;;;;;;;;;;6212663;23;20036;-95
2023/05/18 03:29:12;;;;;;;4.95;2.38;;;;;;;;;;6239522;22;20005;-95
2023/05/18 03:31:37;;;;;;;10.45;2.58;;;;;;;;;;6218665;23;20485;-94
2023/05/18 03:34:05;;;;;;;14.93;2.50;;;;;;;;;;6213808;23;20087;-95
2023/05/18 03:36:30;;;;;;;10.27;2.90;;;;;;;;;;6242015;23;20398;-95
2023/05/18 03:38:58;;;;;;;13.10;3.38;;;;;;;;;;6214157;23;20095;-95
2023/05/18 03:41:23;;;;;;;7.90;2.28;;;;;;;;;;6243571;23;20442;-95
2023/05/18 03:43:49;;;;;;;10.30;2.90;;;;;;;;;;6219596;23;20087;-94
2023/05/18 03:46:15;;;;;;;14.82;3.17;;;;;;;;;;6219824;23;20437;-95
2023/05/18 03:48:47;;;;;;;15.13;2.72;;;;;;;;;;6212626;23;20000;-94
2023/05/18 03:51:15;;;;;;;17.73;3.97;;;;;;;;;;6240339;23;20000;-95
2023/05/18 03:53:41;;;;;;;7.85;2.85;;;;;;;;;;6211809;23;20004;-94
2023/05/18 03:56:06;;;;;;;13.20;2.92;;;;;;;;;;6239480;23;20012;-94
2023/05/18 03:58:32;;;;;;;10.33;3.80;;;;;;;;;;6231228;23;20012;-94
2023/05/18 04:00:57;;;;;;;9.10;2.97;;;;;;;;;;6219022;23;20100;-94
2023/05/18 04:04:00;;;;;;;;;;;;;;;;;;;;;
2023/05/18 04:06:26;;;;;;;9.40;2.90;;;;;;;;;;6245381;23;20076;-95
2023/05/18 04:08:54;;;;;;;13.17;3.43;;;;;;;;;;6212761;23;20028;-95
2023/05/18 04:11:20;;;;;;;12.30;3.47;;;;;;;;;;6242416;23;20008;-96
2023/05/18 04:13:55;;;;;;;20.13;3.67;;;;;;;;;;6219251;23;20004;-95
2023/05/18 04:16:20;;;;;;;11.68;3.40;;;;;;;;;;6217629;23;20043;-95
2023/05/18 04:18:46;;;;;;;16.20;5.00;;;;;;;;;;6218308;23;20012;-96
2023/05/18 04:21:11;;;;;;;27.33;8.60;;;;;;;;;;6213716;23;20499;-95
2023/05/18 04:23:37;;;;;;;24.53;10.50;;;;;;;;;;6212870;23;20016;-96
2023/05/18 04:26:03;;;;;;;19.00;6.60;;;;;;;;;;6214322;23;20091;-96
2023/05/18 04:28:30;;;;;;;12.53;3.90;;;;;;;;;;6241570;22;20018;-95
2023/05/18 04:30:55;;;;;;;12.27;3.60;;;;;;;;;;6219082;23;19996;-95
2023/05/18 04:33:20;;;;;;;12.15;3.85;;;;;;;;;;6215646;23;20001;-95
2023/05/18 04:35:48;;;;;;;12.68;3.22;;;;;;;;;;6211580;23;20001;-95
2023/05/18 04:38:15;;;;;;;12.27;3.50;;;;;;;;;;6240508;22;20024;-95
2023/05/18 04:40:41;;;;;;;12.83;3.70;;;;;;;;;;6214266;23;20000;-94
2023/05/18 04:43:07;;;;;;;11.40;3.30;;;;;;;;;;6237573;23;20095;-95
2023/05/18 04:45:35;;;;;;;12.88;3.85;;;;;;;;;;6204500;23;20429;-95
2023/05/18 04:48:04;;;;;;;17.15;3.60;;;;;;;;;;6213525;23;20502;-96
2023/05/18 04:50:32;;;;;;;12.15;3.70;;;;;;;;;;6243349;23;20109;-94
2023/05/18 04:53:00;;;;;;;15.02;3.22;;;;;;;;;;6219473;23;20024;-95
2023/05/18 04:55:26;;;;;;;11.75;3.35;;;;;;;;;;6218349;23;20000;-95
2023/05/18 04:58:00;;;;;;;22.73;4.38;;;;;;;;;;6214464;23;20012;-95
2023/05/18 05:00:27;;;;;;;15.55;3.53;;;;;;;;;;6241364;23;20001;-95
2023/05/18 05:02:53;;;;;;;18.75;4.57;;;;;;;;;;6214376;23;20004;-95
2023/05/18 05:05:19;;;;;;;12.70;3.83;;;;;;;;;;6242341;23;20102;-95
2023/05/18 05:07:44;;;;;;;13.90;3.63;;;;;;;;;;6217454;23;20031;-95
2023/05/18 05:10:10;;;;;;;12.32;3.50;;;;;;;;;;6218498;23;20003;-94
2023/05/18 05:12:39;;;;;;;19.42;4.25;;;;;;;;;;6213799;23;20387;-95
2023/05/18 05:15:05;;;;;;;16.52;3.80;;;;;;;;;;6239167;23;20020;-96
2023/05/18 05:17:31;;;;;;;19.15;3.80;;;;;;;;;;6239106;22;20007;-95
2023/05/18 05:20:05;;;;;;;12.30;3.67;;;;;;;;;;6238287;23;20005;-94
2023/05/18 05:22:30;;;;;;;18.70;4.03;;;;;;;;;;6243455;23;19996;-93
2023/05/18 05:24:55;;;;;;;9.27;2.97;;;;;;;;;;6213781;23;20031;-95
2023/05/18 05:27:25;;;;;;;14.05;3.22;;;;;;;;;;6237967;22;20004;-94
2023/05/18 05:29:53;;;;;;;14.60;3.25;;;;;;;;;;6212725;23;20047;-94
2023/05/18 05:32:18;;;;;;;16.98;4.03;;;;;;;;;;6238639;23;20107;-96
2023/05/18 05:34:45;;;;;;;20.85;3.97;;;;;;;;;;6217948;23;19996;-93
2023/05/18 05:37:11;;;;;;;16.55;3.25;;;;;;;;;;6212760;23;20052;-94
2023/05/18 05:39:45;;;;;;;15.25;3.60;;;;;;;;;;6216388;23;20020;-95
2023/05/18 05:42:10;;;;;;;6.55;2.25;;;;;;;;;;6213942;23;20474;-96
2023/05/18 05:44:36;;;;;;;11.98;3.45;;;;;;;;;;6210320;23;20004;-95
2023/05/18 05:47:04;;;;;;;13.82;3.38;;;;;;;;;;6237841;23;20012;-95
2023/05/18 05:49:33;;;;;;;14.40;3.15;;;;;;;;;;6243141;23;20000;-95
2023/05/18 05:51:58;;;;;;;10.75;3.35;;;;;;;;;;6210965;23;20100;-95
2023/05/18 05:54:23;;;;;;;8.70;2.80;;;;;;;;;;6241502;23;20400;-96
2023/05/18 05:56:49;;;;;;;9.35;3.58;;;;;;;;;;6213278;23;20044;-95
2023/05/18 05:59:17;;;;;;;8.95;2.85;;;;;;;;;;6240324;22;20003;-96
2023/05/18 06:01:42;;;;;;;9.35;3.20;;;;;;;;;;6213062;23;20011;-95
2023/05/18 06:04:14;;;;;;;12.07;2.83;;;;;;;;;;6238992;23;20001;-94
2023/05/18 06:06:40;;;;;;;9.90;2.75;;;;;;;;;;6212403;23;20020;-94
2023/05/18 06:09:06;;;;;;;9.60;3.15;;;;;;;;;;6237235;22;20514;-95
2023/05/18 06:11:34;;;;;;;8.65;2.67;;;;;;;;;;6237356;23;20002;-96
2023/05/18 06:14:02;;;;;;;12.00;3.28;;;;;;;;;;6238746;23;20034;-95
2023/05/18 06:16:30;;;;;;;6.93;3.10;;;;;;;;;;6243365;23;20068;-95
2023/05/18 06:18:58;;;;;;;9.90;2.55;;;;;;;;;;6218157;23;20087;-94
2023/05/18 06:21:32;;;;;;;7.15;2.95;;;;;;;;;;6218633;23;20062;-95
2023/05/18 06:24:00;;;;;;;5.20;2.45;;;;;;;;;;6218192;23;20004;-96
2023/05/18 06:26:33;;;;;;;10.73;3.45;;;;;;;;;;6217487;23;20120;-95
2023/05/18 06:29:01;;;;;;;9.52;2.97;;;;;;;;;;6213246;23;20087;-95
2023/05/18 06:31:27;;;;;;;7.40;2.65;;;;;;;;;;6241629;23;20035;-96
2023/05/18 06:33:52;;;;;;;12.90;3.28;;;;;;;;;;6211232;23;20004;-96
2023/05/18 06:36:23;;;;;;;10.10;2.97;;;;;;;;;;6241095;23;20004;-96
2023/05/18 06:38:50;;;;;;;7.80;2.90;;;;;;;;;;6211579;23;20004;-95
2023/05/18 06:41:16;;;;;;;10.13;3.63;;;;;;;;;;6239854;23;20094;-95
2023/05/18 06:43:55;;;;;;;7.72;2.65;;;;;;;;;;6217695;23;20373;-95
2023/05/18 06:46:24;;;;;;;7.07;3.30;;;;;;;;;;6213466;23;20015;-96
2023/05/18 06:48:50;;;;;;;8.30;3.50;;;;;;;;;;6218288;23;20364;-95
2023/05/18 06:51:17;;;;;;;10.15;2.63;;;;;;;;;;6212231;23;20406;-96
2023/05/18 06:53:45;;;;;;;10.38;3.13;;;;;;;;;;6209661;23;20059;-96
2023/05/18 06:56:17;;;;;;;13.45;3.17;;;;;;;;;;6235512;23;20008;-96
2023/05/18 06:58:43;;;;;;;9.00;3.20;;;;;;;;;;6217443;23;20365;-95
2023/05/18 07:01:08;;;;;;;9.00;3.22;;;;;;;;;;6218250;23;20021;-96
2023/05/18 07:03:36;;;;;;;10.15;3.45;;;;;;;;;;6217677;23;19996;-96
2023/05/18 07:06:03;;;;;;;11.02;3.40;;;;;;;;;;6212815;23;20016;-94
2023/05/18 07:08:31;;;;;;;8.23;3.35;;;;;;;;;;6243339;22;20024;-96
2023/05/18 07:10:56;;;;;;;14.18;3.15;;;;;;;;;;6212873;23;20003;-95
2023/05/18 07:13:30;;;;;;;8.65;2.83;;;;;;;;;;6241088;23;20063;-95
2023/05/18 07:15:58;;;;;;;9.32;2.75;;;;;;;;;;6218457;23;20011;-96
2023/05/18 07:18:23;;;;;;;6.97;3.00;;;;;;;;;;6218734;23;20000;-96
2023/05/18 07:20:55;;;;;;;9.68;3.17;;;;;;;;;;6218664;23;19993;-96
2023/05/18 07:23:29;;;;;;;10.90;3.17;;;;;;;;;;6218479;23;20008;-96
2023/05/18 07:25:56;;;;;;;7.80;3.05;;;;;;;;;;6216979;23;20430;-95
2023/05/18 07:28:29;;;;;;;8.23;2.85;;;;;;;;;;6215078;23;20000;-95
2023/05/18 07:30:58;;;;;;;8.90;3.40;;;;;;;;;;6212931;23;20424;-94
2023/05/18 07:33:23;;;;;;;9.55;3.15;;;;;;;;;;6241764;23;20442;-96
2023/05/18 07:35:48;;;;;;;8.55;3.08;;;;;;;;;;6218109;23;19997;-95
2023/05/18 07:38:14;;;;;;;10.25;3.50;;;;;;;;;;6213011;23;20012;-93
2023/05/18 07:40:39;;;;;;;11.68;3.55;;;;;;;;;;6211405;23;20079;-94
2023/05/18 07:43:05;;;;;;;9.75;3.30;;;;;;;;;;6236922;23;20012;-95
2023/05/18 07:45:31;;;;;;;12.43;3.50;;;;;;;;;;6241204;23;20023;-95
2023/05/18 07:48:01;;;;;;;11.20;3.42;;;;;;;;;;6211611;23;20092;-95
2023/05/18 07:50:28;;;;;;;15.35;3.05;;;;;;;;;;6239602;23;20323;-94
2023/05/18 07:52:58;;;;;;;11.85;3.35;;;;;;;;;;6243517;23;20110;-95
2023/05/18 07:55:31;;;;;;;7.38;2.75;;;;;;;;;;6215567;23;20051;-96
2023/05/18 07:57:56;;;;;;;13.40;3.17;;;;;;;;;;6214387;23;20001;-94
2023/05/18 08:00:29;;;;;;;7.68;3.10;;;;;;;;;;6241881;23;20297;-96
2023/05/18 08:02:57;;;;;;;5.75;2.88;;;;;;;;;;6212829;23;20084;-96
2023/05/18 08:05:25;;;;;;;11.18;3.20;;;;;;;;;;6239915;23;20001;-95
2023/05/18 08:07:53;;;;;;;6.25;3.28;;;;;;;;;;6212571;23;20000;-95
2023/05/18 08:10:19;;;;;;;9.48;2.75;;;;;;;;;;6243697;23;20051;-96
2023/05/18 08:12:47;;;;;;;10.02;3.08;;;;;;;;;;6212185;23;20460;-96
2023/05/18 08:15:12;;;;;;;13.00;2.72;;;;;;;;;;6240761;23;20005;-96
2023/05/18 08:17:37;;;;;;;6.70;2.90;;;;;;;;;;6213740;23;20072;-95
2023/05/18 08:20:07;;;;;;;10.35;2.92;;;;;;;;;;6238678;23;20013;-95
2023/05/18 08:22:32;;;;;;;11.07;2.88;;;;;;;;;;6245699;23;20446;-96
2023/05/18 08:25:00;;;;;;;10.15;3.65;;;;;;;;;;6245415;23;20004;-96
2023/05/18 08:27:30;;;;;;;9.18;3.00;;;;;;;;;;6242958;22;20079;-95
2023/05/18 08:29:55;;;;;;;8.82;3.30;;;;;;;;;;6218886;23;20032;-96
2023/05/18 08:32:21;;;;;;;9.88;3.40;;;;;;;;;;6217975;23;20328;-96
2023/05/18 08:34:50;;;;;;;9.32;2.95;;;;;;;;;;6220356;23;20084;-95
2023/05/18 08:37:21;;;;;;;8.27;2.20;;;;;;;;;;6217004;23;20431;-95
2023/05/18 08:39:46;;;;;;;6.25;3.00;;;;;;;;;;6212742;23;20009;-96
2023/05/18 08:42:33;;;;;;;8.27;2.40;;;;;;;;;;6240263;23;20110;-96
2023/05/18 08:45:17;;;;;;;7.85;2.20;;;;;;;;;;6219865;23;20075;-95
2023/05/18 08:47:45;;;;;;;9.52;2.75;;;;;;;;;;6213840;23;20017;-96
2023/05/18 08:50:18;;;;;;;9.35;2.95;;;;;;;;;;6241057;23;20000;-95
2023/05/18 08:52:48;;;;;;;9.93;2.40;;;;;;;;;;6219995;23;20034;-96
2023/05/18 08:55:17;;;;;;;10.23;2.58;;;;;;;;;;6216003;23;19996;-96
2023/05/18 08:57:45;;;;;;;5.82;2.00;;;;;;;;;;6218227;23;20004;-95
2023/05/18 09:00:11;;;;;;;9.15;2.13;;;;;;;;;;6219005;23;20009;-95
2023/05/18 09:02:39;;;;;;;11.88;2.67;;;;;;;;;;6214269;23;20591;-96
2023/05/18 09:05:06;;;;;;;15.45;1.88;;;;;;;;;;6239251;23;20024;-94
2023/05/18 09:07:34;;;;;;;6.70;1.80;;;;;;;;;;6238910;22;20032;-95
2023/05/18 09:10:01;;;;;;;7.97;2.25;;;;;;;;;;6238225;23;20004;-96
2023/05/18 09:12:35;;;;;;;8.68;2.50;;;;;;;;;;6241979;23;20008;-96
2023/05/18 09:15:05;;;;;;;4.55;1.85;;;;;;;;;;6218226;23;20008;-96
2023/05/18 09:17:31;;;;;;;4.25;1.90;;;;;;;;;;6211685;23;20271;-95
2023/05/18 09:19:56;;;;;;;8.15;3.80;;;;;;;;;;6238208;23;20008;-94
2023/05/18 09:22:31;;;;;;;9.82;3.58;;;;;;;;;;6240299;23;20726;-94
2023/05/18 09:25:02;;;;;;;6.20;2.40;;;;;;;;;;6213681;23;20008;-95
2023/05/18 09:27:30;;;;;;;8.13;3.60;;;;;;;;;;6243469;22;20038;-94
2023/05/18 09:30:02;;;;;;;6.95;3.03;;;;;;;;;;6212901;23;20011;-95
2023/05/18 09:32:28;;;;;;;;;;;;;;;;;;6245023;23;20383;-96
2023/05/18 09:34:54;;;;;;;10.95;2.70;;;;;;;;;;6244122;23;19914;-95
2023/05/18 09:37:22;;;;;;;7.43;2.08;;;;;;;;;;6215670;23;20005;-95
2023/05/18 09:40:12;;;;;;;9.73;2.85;;;;;;;;;;6220041;23;20066;-96
2023/05/18 09:42:39;;;;;;;6.20;2.50;;;;;;;;;;6215886;23;20016;-96
2023/05/18 09:45:22;;;;;;;10.18;3.00;;;;;;;;;;6237175;23;20001;-95
2023/05/18 09:47:51;;;;;;;10.27;2.72;;;;;;;;;;6238347;22;20066;-95
2023/05/18 09:50:25;;;;;;;15.75;2.60;;;;;;;;;;6242467;23;20498;-96
2023/05/18 09:52:53;;;;;;;12.80;2.33;;;;;;;;;;6187417;23;20096;-94
2023/05/18 09:55:22;;;;;;;8.15;2.00;;;;;;;;;;6239063;23;20001;-94
2023/05/18 09:57:51;;;;;;;6.88;2.25;;;;;;;;;;6214276;23;20008;-96
2023/05/18 10:03:17;;;;;;;7.78;2.38;;;;;;;;;;6246205;23;20004;-95
2023/05/18 10:05:45;;;;;;;11.90;2.40;;;;;;;;;;6219708;23;20008;-96
2023/05/18 10:08:12;;;;;;;10.82;3.28;;;;;;;;;;6214237;23;19996;-95
2023/05/18 10:11:07;;;;;;;11.55;2.70;;;;;;;;;;6218647;23;20008;-95
2023/05/18 10:16:33;;;;;;;8.20;2.60;;;;;;;;;;6245038;23;20099;-96
2023/05/18 10:19:06;;;;;;;4.80;2.70;;;;;;;;;;6220287;23;20043;-96
2023/05/18 10:22:00;;;;;;;7.78;2.80;;;;;;;;;;6220306;23;20043;-96
2023/05/18 10:24:28;;;;;;;11.63;2.97;;;;;;;;;;6218094;23;20054;-94
2023/05/18 10:27:07;;;;;;;9.50;3.17;;;;;;;;;;6212386;23;20013;-96
2023/05/18 10:29:38;;;;;;;8.98;4.00;;;;;;;;;;6242718;23;20000;-96
2023/05/18 10:35:22;;;;;;;6.53;3.58;;;;;;;;;;6230477;23;20007;-95
2023/05/18 10:38:06;;;;;;;;;;;;;;;;;;;;;
2023/05/18 10:40:42;;;;;;;12.15;3.03;;;;;;;;;;6236256;23;20051;-96
2023/05/18 10:43:14;;;;;;;4.40;2.33;;;;;;;;;;6224890;23;20040;-96
2023/05/18 10:46:25;;;;;;;13.88;3.42;;;;;;;;;;6226711;23;20016;-96
2023/05/18 10:48:53;;;;;;;8.57;3.58;;;;;;;;;;6248272;22;20012;-96
2023/05/18 10:51:30;;;;;;;5.30;2.45;;;;;;;;;;6225346;23;20011;-96
2023/05/18 10:54:26;;;;;;;;;;;;;;;;;;;;;
2023/05/18 10:57:04;;;;;;;;;;;;;;;;;;;;;
2023/05/18 10:59:55;;;;;;;13.43;3.35;;;;;;;;;;6255688;23;20050;-96
2023/05/18 11:02:24;;;;;;;7.43;3.13;;;;;;;;;;6227610;23;20397;-96
2023/05/18 11:04:53;;;;;;;7.63;3.50;;;;;;;;;;6226474;23;20004;-96
2023/05/18 11:10:53;;;;;;;;;;;;;;;;;;;;;
2023/05/18 11:16:35;;;;;;;7.72;3.28;;;;;;;;;;6191386;23;20013;-96
2023/05/18 11:19:17;;;;;;;8.63;3.50;;;;;;;;;;6227819;23;20007;-96
2023/05/18 11:21:52;;;;;;;;;;;;;;;;;;;;;
2023/05/18 11:24:59;;;;;;;7.22;4.22;;;;;;;;;;6247567;23;20016;-96
2023/05/18 11:30:39;;;;;;;10.27;3.17;;;;;;;;;;6246648;23;19996;-95
2023/05/18 11:36:21;;;;;;;4.60;2.50;;;;;;;;;;6253948;23;20423;-96
2023/05/18 11:39:12;;;;;;;11.30;4.28;;;;;;;;;;6229665;23;20008;-96
2023/05/18 11:41:46;;;;;;;7.60;3.72;;;;;;;;;;6226037;23;20111;-96
2023/05/18 11:44:14;;;;;;;6.97;2.50;;;;;;;;;;6226644;23;20614;-96
2023/05/18 11:46:54;;;;;;;7.95;2.58;;;;;;;;;;6226323;23;20000;-96
2023/05/18 11:49:49;;;;;;;10.85;3.30;;;;;;;;;;6225883;23;20093;-96
2023/05/18 11:58:11;;;;;;;5.10;2.50;;;;;;;;;;6189033;23;20000;-95
2023/05/18 12:00:46;;;;;;;8.80;2.90;;;;;;;;;;6226387;23;20485;-96
2023/05/18 12:03:45;;;;;;;;;;;;;;;;;;;;;
2023/05/18 12:09:12;;;;;;;5.80;2.58;;;;;;;;;;6239039;23;20331;-96
2023/05/18 12:15:27;;;;;;;12.23;3.60;;;;;;;;;;6219709;23;20037;-96
2023/05/18 12:17:52;;;;;;;6.63;1.90;;;;;;;;;;6252650;22;20024;-96
2023/05/18 12:20:34;;;;;;;6.63;2.00;;;;;;;;;;6223636;23;20005;-96
2023/05/18 12:26:30;;;;;;;9.13;3.38;;;;;;;;;;6210783;23;20068;-95
2023/05/18 12:29:21;;;;;;;;;;;;;;;;;;;;;
2023/05/18 12:32:00;;;;;;;4.60;1.98;;;;;;;;;;6245650;23;20019;-95
2023/05/18 12:35:07;;;;;;;7.88;2.45;;;;;;;;;;6223189;23;20035;-95
2023/05/18 12:37:45;;;;;;;12.18;2.55;;;;;;;;;;6219873;23;20004;-96
2023/05/18 12:40:41;;;;;;;;;;;;;;;;;;;;;
2023/05/18 12:43:15;;;;;;;6.97;2.58;;;;;;;;;;6239273;23;20090;-96
2023/05/18 12:45:45;;;;;;;9.38;2.28;;;;;;;;;;6217565;23;20012;-96
2023/05/18 12:48:30;;;;;;;;;;;;;;;;;;;;;
2023/05/18 12:54:17;;;;;;;6.93;2.10;;;;;;;;;;6235636;23;20004;-96
2023/05/18 12:59:35;;;;;;;;;;;;;;;;;;6232811;23;20004;-96
2023/05/18 13:02:19;;;;;;;;;;;;;;;;;;;;;
2023/05/18 13:04:48;;;;;;;12.30;2.97;;;;;;;;;;6249297;23;20079;-95
2023/05/18 13:07:26;;;;;;;;;;;;;;;;;;;;;
2023/05/18 13:09:59;;;;;;;8.45;2.22;;;;;;;;;;6255047;23;20023;-96
2023/05/18 13:12:57;;;;;;;;;;;;;;;;;;;;;
2023/05/18 13:15:39;;;;;;;15.27;3.20;;;;;;;;;;6254994;23;20023;-96
2023/05/18 13:18:35;;;;;;;9.55;2.90;;;;;;;;;;6228457;23;20006;-96
2023/05/18 13:21:14;;;;;;;4.80;2.60;;;;;;;;;;6224297;23;19996;-96
2023/05/18 13:23:42;;;;;;;7.78;2.53;;;;;;;;;;6226315;23;20004;-96
2023/05/18 13:26:08;;;;;;;9.20;2.60;;;;;;;;;;6248242;23;20017;-96
2023/05/18 13:28:44;;;;;;;;;;;;;;;;;;;;;
2023/05/18 13:31:28;;;;;;;12.93;2.92;;;;;;;;;;6255252;23;20026;-95
2023/05/18 13:34:06;;;;;;;;;;;;;;;;;;6252747;22;20032;-96
2023/05/18 13:36:43;;;;;;;10.23;3.45;;;;;;;;;;6255460;23;19903;-96
2023/05/18 13:39:46;;;;;;;7.05;2.40;;;;;;;;;;6252779;22;20000;-96
2023/05/18 13:42:26;;;;;;;9.70;2.90;;;;;;;;;;6222029;23;20076;-96
2023/05/18 13:45:15;;;;;;;7.03;2.80;;;;;;;;;;6221545;23;20415;-96
2023/05/18 13:48:16;;;;;;;;;;;;;;;;;;;;;
2023/05/18 13:51:03;;;;;;;7.47;2.03;;;;;;;;;;6256389;23;20023;-96
2023/05/18 13:53:55;;;;;;;5.07;2.22;;;;;;;;;;6248053;23;20008;-96
2023/05/18 13:56:37;;;;;;;7.25;2.50;;;;;;;;;;6230163;23;20005;-96
2023/05/18 13:59:18;;;;;;;;;;;;;;;;;;;;;
2023/05/18 14:02:01;;;;;;;;;;;;;;;;;;;;;
2023/05/18 14:04:37;;;;;;;8.40;2.85;;;;;;;;;;6254122;23;20371;-96
2023/05/18 14:07:37;;;;;;;8.32;3.20;;;;;;;;;;6225538;22;20380;-95
2023/05/18 14:10:28;;;;;;;;;;;;;;;;;;;;;
2023/05/18 14:13:21;;;;;;;;;;;;;;;;;;;;;
2023/05/18 14:15:57;;;;;;;6.10;2.63;;;;;;;;;;6254933;23;20038;-96
2023/05/18 14:18:35;;;;;;;6.93;2.38;;;;;;;;;;6224516;23;20004;-96
2023/05/18 14:21:03;;;;;;;4.00;2.10;;;;;;;;;;6226954;23;20000;-96
2023/05/18 14:26:49;;;;;;;;;;;;;;;;;;6245866;22;20027;-95
2023/05/18 14:29:28;;;;;;;;;;;;;;;;;;;;;
2023/05/18 14:32:17;;;;;;;6.80;2.20;;;;;;;;;;6245142;23;20404;-93
2023/05/18 14:34:50;;;;;;;5.50;2.33;;;;;;;;;;6220309;23;20008;-96
2023/05/18 14:37:18;;;;;;;4.47;1.83;;;;;;;;;;6219823;23;20024;-96
2023/05/18 14:40:09;;;;;;;5.88;2.03;;;;;;;;;;6221868;23;20008;-95
2023/05/18 14:42:37;;;;;;;5.72;1.92;;;;;;;;;;6215292;23;20000;-95
2023/05/18 14:45:25;;;;;;;7.78;2.45;;;;;;;;;;6220324;23;20008;-95
2023/05/18 14:48:09;;;;;;;;;;;;;;;;;;;;;
2023/05/18 14:50:37;;;;;;;3.25;1.75;;;;;;;;;;6246431;23;20470;-95
2023/05/18 14:53:05;;;;;;;6.43;2.67;;;;;;;;;;6219325;23;20015;-94
2023/05/18 14:55:43;;;;;;;;;;;;;;;;;;;;;
2023/05/18 14:58:17;;;;;;;3.95;2.17;;;;;;;;;;6242849;23;20452;-94
2023/05/18 15:01:05;;;;;;;6.63;2.35;;;;;;;;;;6219227;23;20086;-95
2023/05/18 15:03:33;;;;;;;8.60;2.50;;;;;;;;;;6219768;23;20000;-95
2023/05/18 15:06:01;;;;;;;6.72;2.00;;;;;;;;;;6219250;23;20020;-96
2023/05/18 15:08:30;;;;;;;4.72;2.00;;;;;;;;;;6218567;23;20012;-95
2023/05/18 15:10:58;;;;;;;10.13;2.50;;;;;;;;;;6219592;23;20004;-95
2023/05/18 15:13:26;;;;;;;7.75;2.42;;;;;;;;;;6220052;23;19996;-95
2023/05/18 15:15:54;;;;;;;7.57;2.00;;;;;;;;;;6218668;23;20040;-95
2023/05/18 15:18:35;;;;;;;6.70;2.38;;;;;;;;;;6218913;23;20041;-95
2023/05/18 15:21:16;;;;;;;8.02;2.75;;;;;;;;;;6220846;23;20000;-96
2023/05/18 15:23:52;;;;;;;6.85;2.08;;;;;;;;;;6222460;23;20004;-96
2023/05/18 15:26:28;;;;;;;5.50;1.65;;;;;;;;;;6241292;22;20007;-95
2023/05/18 15:29:01;;;;;;;4.60;1.83;;;;;;;;;;6249749;22;20004;-95
2023/05/18 15:34:40;;;;;;;7.32;2.05;;;;;;;;;;6235389;22;20642;-96
2023/05/18 15:37:05;;;;;;;6.47;2.10;;;;;;;;;;6276845;22;20644;-94
2023/05/18 15:39:45;;;;;;;6.60;2.08;;;;;;;;;;6276852;22;20237;-96
2023/05/18 15:42:11;;;;;;;6.60;2.22;;;;;;;;;;6250252;22;20007;-95
2023/05/18 15:44:54;;;;;;;;;;;;;;;;;;;;;
2023/05/18 15:47:27;;;;;;;5.90;1.40;;;;;;;;;;6274202;22;20075;-94
2023/05/18 15:49:52;;;;;;;10.73;1.98;;;;;;;;;;6250571;22;20002;-96
2023/05/18 15:52:20;;;;;;;7.63;1.70;;;;;;;;;;6251964;22;19995;-96
2023/05/18 15:54:45;;;;;;;6.32;1.63;;;;;;;;;;6250658;22;20035;-96
2023/05/18 15:57:11;;;;;;;6.53;1.60;;;;;;;;;;6273801;22;20062;-95
2023/05/18 15:59:36;;;;;;;3.75;1.75;;;;;;;;;;6274559;22;20049;-95
2023/05/18 16:02:14;;;;;;;6.95;1.70;;;;;;;;;;6273373;22;20003;-94
2023/05/18 16:04:40;;;;;;;7.60;1.90;;;;;;;;;;6246709;22;20307;-95
2023/05/18 16:07:05;;;;;;;5.82;1.60;;;;;;;;;;6272656;22;20023;-96
2023/05/18 16:09:31;;;;;;;6.28;2.15;;;;;;;;;;6276198;22;20003;-96
2023/05/18 16:11:58;;;;;;;6.88;2.00;;;;;;;;;;6272445;22;20007;-94
2023/05/18 16:14:26;;;;;;;8.75;2.20;;;;;;;;;;6248515;22;20011;-95
2023/05/18 16:16:54;;;;;;;3.70;1.75;;;;;;;;;;6271662;22;19995;-94
2023/05/18 16:19:22;;;;;;;10.88;1.80;;;;;;;;;;6248056;22;20082;-93